sensor_id;sensor_type;location;lat;lon;timestamp;temperature;humidity
33269;DHT22;19640;50.944;5.260;2022-07-01T00:02:14;13.70;99.90
33269;DHT22;19640;50.944;5.260;2022-07-01T00:04:40;13.50;99.90
33269;DHT22;19640;50.944;5.260;2022-07-01T00:07:06;13.60;99.90
33269;DHT22;19640;50.944;5.260;2022-07-01T00:09:31;13.70;99.90
33269;DHT22;19640;50.944;5.260;2022-07-01T00:11:57;13.80;99.90
33269;DHT22;19640;50.944;5.260;2022-07-01T00:14:23;13.80;99.90
33269;DHT22;19640;50.944;5.260;2022-07-01T00:16:49;13.80;99.90
33269;DHT22;19640;50.944;5.260;2022-07-01T00:19:16;13.90;99.90
33269;DHT22;19640;50.944;5.260;2022-07-01T00:21:42;13.80;99.90
33269;DHT22;19640;50.944;5.260;2022-07-01T00:24:07;13.70;99.90
33269;DHT22;19640;50.944;5.260;2022-07-01T00:26:33;13.60;99.90
33269;DHT22;19640;50.944;5.260;2022-07-01T00:28:59;13.70;99.90
33269;DHT22;19640;50.944;5.260;2022-07-01T00:31:24;13.60;99.90
33269;DHT22;19640;50.944;5.260;2022-07-01T00:33:50;13.70;99.90
33269;DHT22;19640;50.944;5.260;2022-07-01T00:36:16;13.70;99.90
33269;DHT22;19640;50.944;5.260;2022-07-01T00:38:41;13.80;99.90
33269;DHT22;19640;50.944;5.260;2022-07-01T00:41:07;13.90;99.90
33269;DHT22;19640;50.944;5.260;2022-07-01T00:43:36;13.70;99.90
33269;DHT22;19640;50.944;5.260;2022-07-01T00:46:04;13.80;99.90
33269;DHT22;19640;50.944;5.260;2022-07-01T00:48:32;13.80;99.90
33269;DHT22;19640;50.944;5.260;2022-07-01T00:50:58;13.80;99.90
33269;DHT22;19640;50.944;5.260;2022-07-01T00:53:25;13.70;99.90
33269;DHT22;19640;50.944;5.260;2022-07-01T00:55:50;13.80;99.90
33269;DHT22;19640;50.944;5.260;2022-07-01T00:58:16;13.60;99.90
33269;DHT22;19640;50.944;5.260;2022-07-01T01:00:42;13.40;99.90
33269;DHT22;19640;50.944;5.260;2022-07-01T01:03:09;13.40;99.90
33269;DHT22;19640;50.944;5.260;2022-07-01T01:05:37;13.60;99.90
33269;DHT22;19640;50.944;5.260;2022-07-01T01:08:03;13.50;99.90
33269;DHT22;19640;50.944;5.260;2022-07-01T01:10:30;13.70;99.90
33269;DHT22;19640;50.944;5.260;2022-07-01T01:12:56;13.80;99.90
33269;DHT22;19640;50.944;5.260;2022-07-01T01:15:23;13.60;99.90
33269;DHT22;19640;50.944;5.260;2022-07-01T01:17:49;13.60;99.90
33269;DHT22;19640;50.944;5.260;2022-07-01T01:20:18;13.90;99.90
33269;DHT22;19640;50.944;5.260;2022-07-01T01:22:45;13.80;99.90
33269;DHT22;19640;50.944;5.260;2022-07-01T01:25:12;13.90;99.90
33269;DHT22;19640;50.944;5.260;2022-07-01T01:27:38;13.90;99.90
33269;DHT22;19640;50.944;5.260;2022-07-01T01:30:05;13.90;99.90
33269;DHT22;19640;50.944;5.260;2022-07-01T01:32:31;14.00;99.90
33269;DHT22;19640;50.944;5.260;2022-07-01T01:34:56;13.90;99.90
33269;DHT22;19640;50.944;5.260;2022-07-01T01:37:22;13.90;99.90
33269;DHT22;19640;50.944;5.260;2022-07-01T01:39:47;13.80;99.90
33269;DHT22;19640;50.944;5.260;2022-07-01T01:42:13;13.80;99.90
33269;DHT22;19640;50.944;5.260;2022-07-01T01:44:39;13.80;99.90
33269;DHT22;19640;50.944;5.260;2022-07-01T01:47:04;13.80;99.90
33269;DHT22;19640;50.944;5.260;2022-07-01T01:49:30;13.80;99.90
33269;DHT22;19640;50.944;5.260;2022-07-01T01:51:59;13.90;99.90
33269;DHT22;19640;50.944;5.260;2022-07-01T01:54:25;14.00;99.90
33269;DHT22;19640;50.944;5.260;2022-07-01T01:56:51;14.00;99.90
33269;DHT22;19640;50.944;5.260;2022-07-01T01:59:16;14.00;99.90
33269;DHT22;19640;50.944;5.260;2022-07-01T02:01:42;13.90;99.90
33269;DHT22;19640;50.944;5.260;2022-07-01T02:04:08;13.90;99.90
33269;DHT22;19640;50.944;5.260;2022-07-01T02:06:34;13.90;99.90
33269;DHT22;19640;50.944;5.260;2022-07-01T02:08:59;13.90;99.90
33269;DHT22;19640;50.944;5.260;2022-07-01T02:11:25;13.80;99.90
33269;DHT22;19640;50.944;5.260;2022-07-01T02:13:51;13.60;99.90
33269;DHT22;19640;50.944;5.260;2022-07-01T02:16:16;13.80;99.90
33269;DHT22;19640;50.944;5.260;2022-07-01T02:18:42;13.90;99.90
33269;DHT22;19640;50.944;5.260;2022-07-01T02:21:09;13.90;99.90
33269;DHT22;19640;50.944;5.260;2022-07-01T02:23:34;14.00;99.90
33269;DHT22;19640;50.944;5.260;2022-07-01T02:26:00;14.20;99.90
33269;DHT22;19640;50.944;5.260;2022-07-01T02:28:26;14.10;99.90
33269;DHT22;19640;50.944;5.260;2022-07-01T02:30:51;14.00;99.90
33269;DHT22;19640;50.944;5.260;2022-07-01T02:33:17;13.80;99.90
33269;DHT22;19640;50.944;5.260;2022-07-01T02:35:43;13.40;99.90
33269;DHT22;19640;50.944;5.260;2022-07-01T02:38:08;13.60;99.90
33269;DHT22;19640;50.944;5.260;2022-07-01T02:40:35;13.70;99.90
33269;DHT22;19640;50.944;5.260;2022-07-01T02:43:08;13.80;99.90
33269;DHT22;19640;50.944;5.260;2022-07-01T02:45:34;13.40;99.90
33269;DHT22;19640;50.944;5.260;2022-07-01T02:48:00;12.90;99.90
33269;DHT22;19640;50.944;5.260;2022-07-01T02:50:27;12.90;99.90
33269;DHT22;19640;50.944;5.260;2022-07-01T02:52:53;13.10;99.90
33269;DHT22;19640;50.944;5.260;2022-07-01T02:55:19;13.20;99.90
33269;DHT22;19640;50.944;5.260;2022-07-01T02:57:45;13.30;99.90
33269;DHT22;19640;50.944;5.260;2022-07-01T03:00:12;13.20;99.90
33269;DHT22;19640;50.944;5.260;2022-07-01T03:02:39;13.20;99.90
33269;DHT22;19640;50.944;5.260;2022-07-01T03:05:05;13.30;99.90
33269;DHT22;19640;50.944;5.260;2022-07-01T03:07:31;13.50;99.90
33269;DHT22;19640;50.944;5.260;2022-07-01T03:09:57;13.50;99.90
33269;DHT22;19640;50.944;5.260;2022-07-01T03:12:23;13.20;99.90
33269;DHT22;19640;50.944;5.260;2022-07-01T03:15:05;13.30;99.90
33269;DHT22;19640;50.944;5.260;2022-07-01T03:17:33;13.30;99.90
33269;DHT22;19640;50.944;5.260;2022-07-01T03:19:59;13.40;99.90
33269;DHT22;19640;50.944;5.260;2022-07-01T03:22:29;13.30;99.90
33269;DHT22;19640;50.944;5.260;2022-07-01T03:24:56;13.20;99.90
33269;DHT22;19640;50.944;5.260;2022-07-01T03:27:22;13.20;99.90
33269;DHT22;19640;50.944;5.260;2022-07-01T03:29:48;13.40;99.90
33269;DHT22;19640;50.944;5.260;2022-07-01T03:32:14;13.50;99.90
33269;DHT22;19640;50.944;5.260;2022-07-01T03:34:42;13.50;99.90
33269;DHT22;19640;50.944;5.260;2022-07-01T03:37:09;13.60;99.90
33269;DHT22;19640;50.944;5.260;2022-07-01T03:39:36;13.20;99.90
33269;DHT22;19640;50.944;5.260;2022-07-01T03:42:03;13.20;99.90
33269;DHT22;19640;50.944;5.260;2022-07-01T03:44:29;13.30;99.90
33269;DHT22;19640;50.944;5.260;2022-07-01T03:46:54;13.40;99.90
33269;DHT22;19640;50.944;5.260;2022-07-01T03:49:20;13.60;99.90
33269;DHT22;19640;50.944;5.260;2022-07-01T03:51:46;13.60;99.90
33269;DHT22;19640;50.944;5.260;2022-07-01T03:54:12;13.30;99.90
33269;DHT22;19640;50.944;5.260;2022-07-01T03:56:58;13.00;99.90
33269;DHT22;19640;50.944;5.260;2022-07-01T03:59:25;13.10;99.90
33269;DHT22;19640;50.944;5.260;2022-07-01T04:01:54;13.30;99.90
33269;DHT22;19640;50.944;5.260;2022-07-01T04:04:21;13.50;99.90
33269;DHT22;19640;50.944;5.260;2022-07-01T04:06:47;13.70;99.90
33269;DHT22;19640;50.944;5.260;2022-07-01T04:09:15;13.90;99.90
33269;DHT22;19640;50.944;5.260;2022-07-01T04:11:43;13.80;99.90
33269;DHT22;19640;50.944;5.260;2022-07-01T04:14:09;13.80;99.90
33269;DHT22;19640;50.944;5.260;2022-07-01T04:16:35;13.80;99.90
33269;DHT22;19640;50.944;5.260;2022-07-01T04:19:02;13.80;99.90
33269;DHT22;19640;50.944;5.260;2022-07-01T04:21:27;13.80;99.90
33269;DHT22;19640;50.944;5.260;2022-07-01T04:24:12;13.90;99.90
33269;DHT22;19640;50.944;5.260;2022-07-01T04:26:39;14.10;99.90
33269;DHT22;19640;50.944;5.260;2022-07-01T04:29:05;14.10;99.90
33269;DHT22;19640;50.944;5.260;2022-07-01T04:31:36;14.20;99.90
33269;DHT22;19640;50.944;5.260;2022-07-01T04:34:02;14.20;99.90
33269;DHT22;19640;50.944;5.260;2022-07-01T04:36:28;14.10;99.90
33269;DHT22;19640;50.944;5.260;2022-07-01T04:38:54;14.10;99.90
33269;DHT22;19640;50.944;5.260;2022-07-01T04:41:19;14.20;99.90
33269;DHT22;19640;50.944;5.260;2022-07-01T04:44:04;14.30;99.90
33269;DHT22;19640;50.944;5.260;2022-07-01T04:46:30;14.20;99.90
33269;DHT22;19640;50.944;5.260;2022-07-01T04:48:55;14.10;99.90
33269;DHT22;19640;50.944;5.260;2022-07-01T04:51:21;14.10;99.90
33269;DHT22;19640;50.944;5.260;2022-07-01T04:53:47;14.00;99.90
33269;DHT22;19640;50.944;5.260;2022-07-01T04:56:13;14.00;99.90
33269;DHT22;19640;50.944;5.260;2022-07-01T04:58:39;13.90;99.90
33269;DHT22;19640;50.944;5.260;2022-07-01T05:01:05;14.00;99.90
33269;DHT22;19640;50.944;5.260;2022-07-01T05:03:31;14.00;99.90
33269;DHT22;19640;50.944;5.260;2022-07-01T05:05:56;14.10;99.90
33269;DHT22;19640;50.944;5.260;2022-07-01T05:08:22;14.10;99.90
33269;DHT22;19640;50.944;5.260;2022-07-01T05:10:47;14.00;99.90
33269;DHT22;19640;50.944;5.260;2022-07-01T05:13:13;14.10;99.90
33269;DHT22;19640;50.944;5.260;2022-07-01T05:15:39;14.20;99.90
33269;DHT22;19640;50.944;5.260;2022-07-01T05:18:04;14.30;99.90
33269;DHT22;19640;50.944;5.260;2022-07-01T05:20:48;14.10;99.90
33269;DHT22;19640;50.944;5.260;2022-07-01T05:23:32;14.10;99.90
33269;DHT22;19640;50.944;5.260;2022-07-01T05:25:58;14.20;99.90
33269;DHT22;19640;50.944;5.260;2022-07-01T05:28:24;14.20;99.90
33269;DHT22;19640;50.944;5.260;2022-07-01T05:30:49;14.40;99.90
33269;DHT22;19640;50.944;5.260;2022-07-01T05:33:15;14.50;99.90
33269;DHT22;19640;50.944;5.260;2022-07-01T05:35:40;14.30;99.90
33269;DHT22;19640;50.944;5.260;2022-07-01T05:38:06;14.30;99.90
33269;DHT22;19640;50.944;5.260;2022-07-01T05:40:32;14.30;99.90
33269;DHT22;19640;50.944;5.260;2022-07-01T05:42:57;14.50;99.90
33269;DHT22;19640;50.944;5.260;2022-07-01T05:45:23;14.70;99.90
33269;DHT22;19640;50.944;5.260;2022-07-01T05:47:49;14.40;99.90
33269;DHT22;19640;50.944;5.260;2022-07-01T05:50:14;14.70;99.90
33269;DHT22;19640;50.944;5.260;2022-07-01T05:52:41;15.10;99.90
33269;DHT22;19640;50.944;5.260;2022-07-01T05:55:10;15.50;99.90
33269;DHT22;19640;50.944;5.260;2022-07-01T05:57:36;15.60;99.90
33269;DHT22;19640;50.944;5.260;2022-07-01T06:00:03;15.90;99.90
33269;DHT22;19640;50.944;5.260;2022-07-01T06:02:28;16.10;99.90
33269;DHT22;19640;50.944;5.260;2022-07-01T06:04:54;16.20;99.90
33269;DHT22;19640;50.944;5.260;2022-07-01T06:07:20;16.50;99.90
33269;DHT22;19640;50.944;5.260;2022-07-01T06:09:45;16.00;99.90
33269;DHT22;19640;50.944;5.260;2022-07-01T06:12:11;15.80;99.90
33269;DHT22;19640;50.944;5.260;2022-07-01T06:14:36;15.60;99.90
33269;DHT22;19640;50.944;5.260;2022-07-01T06:17:04;15.80;99.90
33269;DHT22;19640;50.944;5.260;2022-07-01T06:19:29;15.60;99.90
33269;DHT22;19640;50.944;5.260;2022-07-01T06:21:55;15.40;99.90
33269;DHT22;19640;50.944;5.260;2022-07-01T06:24:21;15.60;99.90
33269;DHT22;19640;50.944;5.260;2022-07-01T06:26:47;16.00;99.90
33269;DHT22;19640;50.944;5.260;2022-07-01T06:29:13;16.70;99.90
33269;DHT22;19640;50.944;5.260;2022-07-01T06:31:39;17.50;99.90
33269;DHT22;19640;50.944;5.260;2022-07-01T06:34:04;18.20;99.90
33269;DHT22;19640;50.944;5.260;2022-07-01T06:36:30;19.20;99.90
33269;DHT22;19640;50.944;5.260;2022-07-01T06:38:56;19.50;99.90
33269;DHT22;19640;50.944;5.260;2022-07-01T06:41:21;19.80;99.90
33269;DHT22;19640;50.944;5.260;2022-07-01T06:43:57;19.30;99.90
33269;DHT22;19640;50.944;5.260;2022-07-01T06:46:23;19.30;99.90
33269;DHT22;19640;50.944;5.260;2022-07-01T06:48:49;20.30;99.90
33269;DHT22;19640;50.944;5.260;2022-07-01T06:51:15;20.70;99.90
33269;DHT22;19640;50.944;5.260;2022-07-01T06:53:41;20.30;99.90
33269;DHT22;19640;50.944;5.260;2022-07-01T06:56:07;19.60;99.90
33269;DHT22;19640;50.944;5.260;2022-07-01T06:58:33;19.20;99.90
33269;DHT22;19640;50.944;5.260;2022-07-01T07:00:59;19.60;99.90
33269;DHT22;19640;50.944;5.260;2022-07-01T07:03:25;19.60;99.90
33269;DHT22;19640;50.944;5.260;2022-07-01T07:05:52;20.00;99.90
33269;DHT22;19640;50.944;5.260;2022-07-01T07:08:18;20.50;99.90
33269;DHT22;19640;50.944;5.260;2022-07-01T07:10:43;21.80;99.90
33269;DHT22;19640;50.944;5.260;2022-07-01T07:13:09;22.50;99.90
33269;DHT22;19640;50.944;5.260;2022-07-01T07:15:35;22.50;99.90
33269;DHT22;19640;50.944;5.260;2022-07-01T07:18:01;23.60;99.90
33269;DHT22;19640;50.944;5.260;2022-07-01T07:20:27;23.40;99.90
33269;DHT22;19640;50.944;5.260;2022-07-01T07:22:53;22.80;99.90
33269;DHT22;19640;50.944;5.260;2022-07-01T07:25:19;22.60;99.90
33269;DHT22;19640;50.944;5.260;2022-07-01T07:27:45;22.70;99.90
33269;DHT22;19640;50.944;5.260;2022-07-01T07:30:14;22.10;99.90
33269;DHT22;19640;50.944;5.260;2022-07-01T07:32:40;20.90;99.90
33269;DHT22;19640;50.944;5.260;2022-07-01T07:35:07;21.40;99.90
33269;DHT22;19640;50.944;5.260;2022-07-01T07:37:33;21.90;99.90
33269;DHT22;19640;50.944;5.260;2022-07-01T07:39:59;21.30;99.90
33269;DHT22;19640;50.944;5.260;2022-07-01T07:42:25;21.10;99.90
33269;DHT22;19640;50.944;5.260;2022-07-01T07:44:50;21.90;99.90
33269;DHT22;19640;50.944;5.260;2022-07-01T07:47:16;22.50;99.90
33269;DHT22;19640;50.944;5.260;2022-07-01T07:49:42;21.80;99.90
33269;DHT22;19640;50.944;5.260;2022-07-01T07:52:07;22.30;99.90
33269;DHT22;19640;50.944;5.260;2022-07-01T07:54:33;23.00;99.90
33269;DHT22;19640;50.944;5.260;2022-07-01T07:57:00;23.10;99.90
33269;DHT22;19640;50.944;5.260;2022-07-01T07:59:26;22.80;99.90
33269;DHT22;19640;50.944;5.260;2022-07-01T08:01:51;21.80;99.90
33269;DHT22;19640;50.944;5.260;2022-07-01T08:04:17;20.80;99.90
33269;DHT22;19640;50.944;5.260;2022-07-01T08:06:43;21.50;99.90
33269;DHT22;19640;50.944;5.260;2022-07-01T08:09:08;22.60;99.90
33269;DHT22;19640;50.944;5.260;2022-07-01T08:11:34;23.50;99.90
33269;DHT22;19640;50.944;5.260;2022-07-01T08:14:00;24.10;99.90
33269;DHT22;19640;50.944;5.260;2022-07-01T08:16:25;24.60;99.90
33269;DHT22;19640;50.944;5.260;2022-07-01T08:18:51;23.80;99.90
33269;DHT22;19640;50.944;5.260;2022-07-01T08:21:17;23.00;99.90
33269;DHT22;19640;50.944;5.260;2022-07-01T08:23:42;22.50;99.90
33269;DHT22;19640;50.944;5.260;2022-07-01T08:26:08;21.40;99.90
33269;DHT22;19640;50.944;5.260;2022-07-01T08:28:36;21.00;99.90
33269;DHT22;19640;50.944;5.260;2022-07-01T08:31:02;20.50;99.90
33269;DHT22;19640;50.944;5.260;2022-07-01T08:33:28;20.30;99.90
33269;DHT22;19640;50.944;5.260;2022-07-01T08:35:54;20.50;99.90
33269;DHT22;19640;50.944;5.260;2022-07-01T08:38:20;20.90;99.90
33269;DHT22;19640;50.944;5.260;2022-07-01T08:40:45;20.70;99.90
33269;DHT22;19640;50.944;5.260;2022-07-01T08:43:11;20.30;99.90
33269;DHT22;19640;50.944;5.260;2022-07-01T08:45:37;20.30;99.90
33269;DHT22;19640;50.944;5.260;2022-07-01T08:48:03;20.70;99.90
33269;DHT22;19640;50.944;5.260;2022-07-01T08:50:33;20.60;99.90
33269;DHT22;19640;50.944;5.260;2022-07-01T08:52:59;21.10;99.90
33269;DHT22;19640;50.944;5.260;2022-07-01T08:55:25;21.30;99.90
33269;DHT22;19640;50.944;5.260;2022-07-01T08:57:51;21.10;99.90
33269;DHT22;19640;50.944;5.260;2022-07-01T09:00:17;21.40;99.90
33269;DHT22;19640;50.944;5.260;2022-07-01T09:02:57;21.10;99.90
33269;DHT22;19640;50.944;5.260;2022-07-01T09:05:24;20.80;99.90
33269;DHT22;19640;50.944;5.260;2022-07-01T09:08:01;20.80;99.90
33269;DHT22;19640;50.944;5.260;2022-07-01T09:10:29;20.70;99.90
33269;DHT22;19640;50.944;5.260;2022-07-01T09:13:07;20.40;99.90
33269;DHT22;19640;50.944;5.260;2022-07-01T09:15:34;20.10;99.90
33269;DHT22;19640;50.944;5.260;2022-07-01T09:18:15;20.20;99.90
33269;DHT22;19640;50.944;5.260;2022-07-01T09:20:46;20.60;99.90
33269;DHT22;19640;50.944;5.260;2022-07-01T09:23:15;21.00;99.90
33269;DHT22;19640;50.944;5.260;2022-07-01T09:25:47;20.40;99.90
33269;DHT22;19640;50.944;5.260;2022-07-01T09:28:18;19.70;99.90
33269;DHT22;19640;50.944;5.260;2022-07-01T09:30:55;20.00;99.90
33269;DHT22;19640;50.944;5.260;2022-07-01T09:33:24;20.20;99.90
33269;DHT22;19640;50.944;5.260;2022-07-01T09:35:50;20.30;99.90
33269;DHT22;19640;50.944;5.260;2022-07-01T09:38:19;19.80;99.90
33269;DHT22;19640;50.944;5.260;2022-07-01T09:43:23;19.80;99.90
33269;DHT22;19640;50.944;5.260;2022-07-01T09:46:09;20.10;99.90
33269;DHT22;19640;50.944;5.260;2022-07-01T09:51:06;20.30;99.90
33269;DHT22;19640;50.944;5.260;2022-07-01T09:53:32;19.80;99.90
33269;DHT22;19640;50.944;5.260;2022-07-01T09:55:58;19.70;99.90
33269;DHT22;19640;50.944;5.260;2022-07-01T09:58:24;19.90;99.90
33269;DHT22;19640;50.944;5.260;2022-07-01T10:00:52;20.00;99.90
33269;DHT22;19640;50.944;5.260;2022-07-01T10:03:19;19.90;99.90
33269;DHT22;19640;50.944;5.260;2022-07-01T10:13:46;21.10;99.90
33269;DHT22;19640;50.944;5.260;2022-07-01T10:16:13;21.30;99.90
33269;DHT22;19640;50.944;5.260;2022-07-01T10:18:40;21.10;99.90
33269;DHT22;19640;50.944;5.260;2022-07-01T10:21:05;21.10;99.90
33269;DHT22;19640;50.944;5.260;2022-07-01T10:23:42;21.00;99.90
33269;DHT22;19640;50.944;5.260;2022-07-01T10:26:09;21.20;99.90
33269;DHT22;19640;50.944;5.260;2022-07-01T10:31:16;21.20;99.90
33269;DHT22;19640;50.944;5.260;2022-07-01T10:33:49;21.10;99.90
33269;DHT22;19640;50.944;5.260;2022-07-01T10:37:00;20.80;99.90
33269;DHT22;19640;50.944;5.260;2022-07-01T10:39:25;20.90;99.90
33269;DHT22;19640;50.944;5.260;2022-07-01T10:44:19;20.80;99.90
33269;DHT22;19640;50.944;5.260;2022-07-01T10:46:50;20.70;99.90
33269;DHT22;19640;50.944;5.260;2022-07-01T10:52:14;20.70;99.90
33269;DHT22;19640;50.944;5.260;2022-07-01T10:54:47;20.70;99.90
33269;DHT22;19640;50.944;5.260;2022-07-01T10:59:46;20.10;99.90
33269;DHT22;19640;50.944;5.260;2022-07-01T11:02:21;20.20;99.90
33269;DHT22;19640;50.944;5.260;2022-07-01T11:04:47;20.30;99.90
33269;DHT22;19640;50.944;5.260;2022-07-01T11:07:13;20.40;99.90
33269;DHT22;19640;50.944;5.260;2022-07-01T11:09:39;20.60;99.90
33269;DHT22;19640;50.944;5.260;2022-07-01T11:12:06;21.10;99.90
33269;DHT22;19640;50.944;5.260;2022-07-01T11:14:39;21.40;99.90
33269;DHT22;19640;50.944;5.260;2022-07-01T11:17:06;21.20;99.90
33269;DHT22;19640;50.944;5.260;2022-07-01T11:19:32;21.20;99.90
33269;DHT22;19640;50.944;5.260;2022-07-01T11:21:58;21.10;99.90
33269;DHT22;19640;50.944;5.260;2022-07-01T11:24:24;20.90;99.90
33269;DHT22;19640;50.944;5.260;2022-07-01T11:26:50;21.00;99.90
33269;DHT22;19640;50.944;5.260;2022-07-01T11:29:27;21.10;99.90
33269;DHT22;19640;50.944;5.260;2022-07-01T11:31:53;21.10;99.90
33269;DHT22;19640;50.944;5.260;2022-07-01T11:34:19;21.30;99.90
33269;DHT22;19640;50.944;5.260;2022-07-01T11:36:46;20.90;99.90
33269;DHT22;19640;50.944;5.260;2022-07-01T11:39:32;20.90;99.90
33269;DHT22;19640;50.944;5.260;2022-07-01T11:42:06;20.70;99.90
33269;DHT22;19640;50.944;5.260;2022-07-01T11:44:37;20.60;99.90
33269;DHT22;19640;50.944;5.260;2022-07-01T11:47:05;20.50;99.90
33269;DHT22;19640;50.944;5.260;2022-07-01T11:49:31;20.30;99.90
33269;DHT22;19640;50.944;5.260;2022-07-01T11:51:59;20.30;99.90
33269;DHT22;19640;50.944;5.260;2022-07-01T11:54:25;20.30;99.90
33269;DHT22;19640;50.944;5.260;2022-07-01T11:56:52;20.40;99.90
33269;DHT22;19640;50.944;5.260;2022-07-01T11:59:18;20.20;99.90
33269;DHT22;19640;50.944;5.260;2022-07-01T12:01:54;20.10;99.90
33269;DHT22;19640;50.944;5.260;2022-07-01T12:04:20;19.90;99.90
33269;DHT22;19640;50.944;5.260;2022-07-01T12:06:46;20.00;99.90
33269;DHT22;19640;50.944;5.260;2022-07-01T12:09:17;20.50;99.90
33269;DHT22;19640;50.944;5.260;2022-07-01T12:11:47;20.80;99.90
33269;DHT22;19640;50.944;5.260;2022-07-01T12:14:30;20.90;99.90
33269;DHT22;19640;50.944;5.260;2022-07-01T12:17:00;21.00;99.90
33269;DHT22;19640;50.944;5.260;2022-07-01T12:22:07;20.90;99.90
33269;DHT22;19640;50.944;5.260;2022-07-01T12:24:33;20.90;99.90
33269;DHT22;19640;50.944;5.260;2022-07-01T12:29:27;21.40;99.90
33269;DHT22;19640;50.944;5.260;2022-07-01T12:32:02;21.50;99.90
33269;DHT22;19640;50.944;5.260;2022-07-01T12:37:27;21.80;99.90
33269;DHT22;19640;50.944;5.260;2022-07-01T12:39:58;21.80;99.90
33269;DHT22;19640;50.944;5.260;2022-07-01T12:44:52;21.60;99.90
33269;DHT22;19640;50.944;5.260;2022-07-01T12:47:32;21.80;99.90
33269;DHT22;19640;50.944;5.260;2022-07-01T12:52:37;21.50;99.90
33269;DHT22;19640;50.944;5.260;2022-07-01T12:55:20;21.60;99.90
33269;DHT22;19640;50.944;5.260;2022-07-01T12:57:56;21.50;99.90
33269;DHT22;19640;50.944;5.260;2022-07-01T13:00:23;21.40;99.90
33269;DHT22;19640;50.944;5.260;2022-07-01T13:02:52;21.10;99.90
33269;DHT22;19640;50.944;5.260;2022-07-01T13:05:18;20.80;99.90
33269;DHT22;19640;50.944;5.260;2022-07-01T13:07:44;21.00;99.90
33269;DHT22;19640;50.944;5.260;2022-07-01T13:10:10;21.10;99.90
33269;DHT22;19640;50.944;5.260;2022-07-01T13:12:36;21.20;99.90
33269;DHT22;19640;50.944;5.260;2022-07-01T13:15:02;20.90;99.90
33269;DHT22;19640;50.944;5.260;2022-07-01T13:17:28;20.90;99.90
33269;DHT22;19640;50.944;5.260;2022-07-01T13:19:54;21.10;99.90
33269;DHT22;19640;50.944;5.260;2022-07-01T13:22:20;21.20;99.90
33269;DHT22;19640;50.944;5.260;2022-07-01T13:24:45;21.40;99.90
33269;DHT22;19640;50.944;5.260;2022-07-01T13:27:11;21.90;99.90
33269;DHT22;19640;50.944;5.260;2022-07-01T13:29:37;22.40;99.90
33269;DHT22;19640;50.944;5.260;2022-07-01T13:32:03;22.60;99.90
33269;DHT22;19640;50.944;5.260;2022-07-01T13:34:29;22.20;99.90
33269;DHT22;19640;50.944;5.260;2022-07-01T13:36:55;22.10;99.90
33269;DHT22;19640;50.944;5.260;2022-07-01T13:39:21;22.30;99.90
33269;DHT22;19640;50.944;5.260;2022-07-01T13:41:47;21.90;99.90
33269;DHT22;19640;50.944;5.260;2022-07-01T13:44:13;21.80;99.90
33269;DHT22;19640;50.944;5.260;2022-07-01T13:46:38;21.50;99.90
33269;DHT22;19640;50.944;5.260;2022-07-01T13:49:04;21.30;99.90
33269;DHT22;19640;50.944;5.260;2022-07-01T13:51:30;21.40;99.90
33269;DHT22;19640;50.944;5.260;2022-07-01T13:53:56;21.60;99.90
33269;DHT22;19640;50.944;5.260;2022-07-01T13:56:27;21.80;99.90
33269;DHT22;19640;50.944;5.260;2022-07-01T13:58:53;22.00;99.90
33269;DHT22;19640;50.944;5.260;2022-07-01T14:01:20;22.10;99.90
33269;DHT22;19640;50.944;5.260;2022-07-01T14:03:48;21.70;99.90
33269;DHT22;19640;50.944;5.260;2022-07-01T14:06:14;21.90;99.90
33269;DHT22;19640;50.944;5.260;2022-07-01T14:08:40;21.80;99.90
33269;DHT22;19640;50.944;5.260;2022-07-01T14:11:06;21.90;99.90
33269;DHT22;19640;50.944;5.260;2022-07-01T14:13:31;21.60;99.90
33269;DHT22;19640;50.944;5.260;2022-07-01T14:15:57;21.80;99.90
33269;DHT22;19640;50.944;5.260;2022-07-01T14:18:23;22.10;99.90
33269;DHT22;19640;50.944;5.260;2022-07-01T14:20:48;22.10;99.90
33269;DHT22;19640;50.944;5.260;2022-07-01T14:23:14;22.00;99.90
33269;DHT22;19640;50.944;5.260;2022-07-01T14:25:40;22.10;99.90
33269;DHT22;19640;50.944;5.260;2022-07-01T14:28:07;22.10;98.80
33269;DHT22;19640;50.944;5.260;2022-07-01T14:30:33;22.10;99.90
33269;DHT22;19640;50.944;5.260;2022-07-01T14:32:59;21.90;99.30
33269;DHT22;19640;50.944;5.260;2022-07-01T14:35:27;21.80;99.90
33269;DHT22;19640;50.944;5.260;2022-07-01T14:37:52;21.60;99.90
33269;DHT22;19640;50.944;5.260;2022-07-01T14:40:18;21.80;99.90
33269;DHT22;19640;50.944;5.260;2022-07-01T14:42:44;22.10;99.90
33269;DHT22;19640;50.944;5.260;2022-07-01T14:45:12;22.00;99.90
33269;DHT22;19640;50.944;5.260;2022-07-01T14:47:42;22.30;99.90
33269;DHT22;19640;50.944;5.260;2022-07-01T14:50:09;22.10;98.90
33269;DHT22;19640;50.944;5.260;2022-07-01T14:52:35;22.10;99.50
33269;DHT22;19640;50.944;5.260;2022-07-01T14:55:01;22.10;99.90
33269;DHT22;19640;50.944;5.260;2022-07-01T14:57:27;22.20;97.70
33269;DHT22;19640;50.944;5.260;2022-07-01T14:59:53;22.00;97.30
33269;DHT22;19640;50.944;5.260;2022-07-01T15:02:19;21.80;98.00
33269;DHT22;19640;50.944;5.260;2022-07-01T15:04:45;21.80;99.20
33269;DHT22;19640;50.944;5.260;2022-07-01T15:07:11;22.00;98.20
33269;DHT22;19640;50.944;5.260;2022-07-01T15:09:38;22.20;99.90
33269;DHT22;19640;50.944;5.260;2022-07-01T15:12:04;22.30;98.50
33269;DHT22;19640;50.944;5.260;2022-07-01T15:14:30;22.40;97.60
33269;DHT22;19640;50.944;5.260;2022-07-01T15:16:56;22.40;98.40
33269;DHT22;19640;50.944;5.260;2022-07-01T15:19:24;22.60;99.90
33269;DHT22;19640;50.944;5.260;2022-07-01T15:21:52;22.80;99.90
33269;DHT22;19640;50.944;5.260;2022-07-01T15:24:17;22.70;99.40
33269;DHT22;19640;50.944;5.260;2022-07-01T15:26:43;22.90;98.60
33269;DHT22;19640;50.944;5.260;2022-07-01T15:29:09;22.90;97.80
33269;DHT22;19640;50.944;5.260;2022-07-01T15:31:35;22.80;97.20
33269;DHT22;19640;50.944;5.260;2022-07-01T15:34:00;22.50;95.10
33269;DHT22;19640;50.944;5.260;2022-07-01T15:36:26;22.50;95.00
33269;DHT22;19640;50.944;5.260;2022-07-01T15:38:52;22.50;96.10
33269;DHT22;19640;50.944;5.260;2022-07-01T15:41:20;22.80;94.70
33269;DHT22;19640;50.944;5.260;2022-07-01T15:43:46;22.70;94.60
33269;DHT22;19640;50.944;5.260;2022-07-01T15:46:11;22.70;94.80
33269;DHT22;19640;50.944;5.260;2022-07-01T15:48:38;22.30;94.30
33269;DHT22;19640;50.944;5.260;2022-07-01T15:51:04;21.90;96.20
33269;DHT22;19640;50.944;5.260;2022-07-01T15:53:30;21.80;96.70
33269;DHT22;19640;50.944;5.260;2022-07-01T15:55:56;21.80;96.60
33269;DHT22;19640;50.944;5.260;2022-07-01T15:58:22;22.00;94.80
33269;DHT22;19640;50.944;5.260;2022-07-01T16:00:48;22.20;97.40
33269;DHT22;19640;50.944;5.260;2022-07-01T16:03:15;22.40;96.00
33269;DHT22;19640;50.944;5.260;2022-07-01T16:05:46;22.50;95.40
33269;DHT22;19640;50.944;5.260;2022-07-01T16:08:24;22.60;95.70